createdAt,value
2018-02-14T00:02:25.637Z,23.23
2018-02-14T00:04:51.694Z,23.20
2018-02-14T00:07:17.710Z,23.24
2018-02-14T00:09:43.779Z,23.24
2018-02-14T00:12:09.834Z,23.22
2018-02-14T00:14:35.845Z,23.21
2018-02-14T00:17:01.925Z,23.14
2018-02-14T00:19:27.941Z,23.27
2018-02-14T00:21:53.956Z,23.16
2018-02-14T00:24:19.970Z,23.22
2018-02-14T00:26:45.994Z,23.13
2018-02-14T00:29:12.014Z,23.22
2018-02-14T00:31:38.115Z,23.26
2018-02-14T00:34:04.193Z,23.17
2018-02-14T00:36:30.220Z,23.27
2018-02-14T00:38:56.269Z,22.99
2018-02-14T00:41:22.263Z,23.28
2018-02-14T00:43:48.294Z,23.23
2018-02-14T00:46:14.297Z,23.18
2018-02-14T00:48:40.359Z,23.14
2018-02-14T00:51:06.473Z,23.22
2018-02-14T00:53:32.490Z,23.26
2018-02-14T00:55:58.583Z,23.18
2018-02-14T00:58:24.672Z,23.18
2018-02-14T01:00:50.721Z,23.22
2018-02-14T01:03:16.769Z,23.22
2018-02-14T01:05:42.830Z,23.26
2018-02-14T01:08:08.857Z,23.17
2018-02-14T01:10:34.925Z,23.18
2018-02-14T01:13:00.953Z,23.23
2018-02-14T01:15:27.026Z,23.27
2018-02-14T01:17:53.116Z,23.30
2018-02-14T01:20:19.199Z,23.20
2018-02-14T01:22:45.236Z,23.26
2018-02-14T01:25:11.281Z,23.12
2018-02-14T01:27:37.316Z,23.19
2018-02-14T01:30:03.377Z,23.22
2018-02-14T01:32:29.451Z,23.27
2018-02-14T01:34:55.571Z,23.29
2018-02-14T01:37:21.634Z,23.29
2018-02-14T01:39:47.670Z,23.05
2018-02-14T01:42:13.756Z,23.10
2018-02-14T01:44:39.755Z,23.15
2018-02-14T01:47:05.794Z,23.27
2018-02-14T01:49:31.862Z,23.19
2018-02-14T01:51:57.883Z,23.12
2018-02-14T01:54:23.905Z,23.28
2018-02-14T01:56:49.953Z,23.19
2018-02-14T01:59:16.063Z,23.29
2018-02-14T02:01:42.191Z,23.22
2018-02-14T02:04:08.218Z,23.19
2018-02-14T02:06:34.299Z,23.27
2018-02-14T02:09:00.320Z,23.29
2018-02-14T02:11:26.389Z,23.26
2018-02-14T02:13:52.399Z,23.31
2018-02-14T02:16:18.423Z,23.24
2018-02-14T02:18:44.452Z,23.21
2018-02-14T02:21:10.519Z,23.18
2018-02-14T02:23:36.604Z,23.28
2018-02-14T02:26:02.629Z,23.31
2018-02-14T02:28:29.471Z,23.28
2018-02-14T02:30:55.473Z,23.31
2018-02-14T02:33:21.520Z,23.20
2018-02-14T02:35:47.626Z,23.19
2018-02-14T02:38:13.687Z,23.22
2018-02-14T02:40:39.726Z,23.31
2018-02-14T02:43:05.764Z,23.26
2018-02-14T02:45:31.797Z,23.26
2018-02-14T02:47:57.785Z,23.32
2018-02-14T02:50:23.906Z,23.28
2018-02-14T02:52:50.056Z,23.28
2018-02-14T02:55:16.067Z,23.05
2018-02-14T02:57:42.102Z,23.15
2018-02-14T03:00:08.126Z,23.15
2018-02-14T03:02:34.162Z,23.28
2018-02-14T03:05:00.189Z,23.27
2018-02-14T03:07:26.264Z,23.30
2018-02-14T03:09:52.336Z,23.27
2018-02-14T03:12:18.425Z,23.19
2018-02-14T03:14:44.466Z,23.33
2018-02-14T03:17:10.546Z,23.09
2018-02-14T03:19:36.607Z,23.27
2018-02-14T03:22:02.626Z,23.29
2018-02-14T03:24:28.662Z,23.27
2018-02-14T03:26:54.773Z,23.19
2018-02-14T03:29:20.815Z,23.13
2018-02-14T03:31:46.846Z,23.19
2018-02-14T03:34:12.912Z,23.27
2018-02-14T03:36:38.973Z,23.30
2018-02-14T03:39:05.033Z,23.30
2018-02-14T03:41:31.098Z,23.28
2018-02-14T03:43:57.241Z,23.28
2018-02-14T03:46:23.321Z,23.24
2018-02-14T03:48:49.342Z,23.28
2018-02-14T03:51:15.406Z,23.25
2018-02-14T03:53:41.484Z,23.30
2018-02-14T03:56:08.804Z,23.29
2018-02-14T03:58:33.611Z,23.16
2018-02-14T04:00:59.680Z,23.20
2018-02-14T04:03:25.695Z,23.30
2018-02-14T04:05:51.796Z,23.28
2018-02-14T04:08:17.829Z,23.28
2018-02-14T04:10:43.967Z,23.17
2018-02-14T04:13:09.903Z,23.22
2018-02-14T04:15:35.962Z,22.72
2018-02-14T04:18:01.998Z,22.30
2018-02-14T04:20:28.067Z,22.20
2018-02-14T04:22:54.165Z,21.86
2018-02-14T04:25:20.267Z,21.85
2018-02-14T04:27:46.298Z,21.24
2018-02-14T04:30:12.340Z,21.40
2018-02-14T04:32:38.361Z,21.18
2018-02-14T04:35:04.386Z,21.47
2018-02-14T04:37:30.433Z,21.67
2018-02-14T04:39:56.518Z,22.11
2018-02-14T04:42:22.555Z,22.01
2018-02-14T04:44:48.583Z,22.30
2018-02-14T04:47:14.786Z,22.63
2018-02-14T04:49:40.887Z,22.52
2018-02-14T04:52:06.950Z,22.64
2018-02-14T04:54:32.987Z,22.71
2018-02-14T04:56:59.022Z,22.94
2018-02-14T04:59:25.040Z,22.96
2018-02-14T05:01:51.083Z,22.91
2018-02-14T05:04:17.089Z,22.71
2018-02-14T05:06:43.119Z,23.05
2018-02-14T05:09:09.196Z,22.77
2018-02-14T05:11:35.209Z,23.03
2018-02-14T05:14:01.230Z,23.01
2018-02-14T05:16:27.296Z,23.05
2018-02-14T05:18:53.287Z,22.98
2018-02-14T05:21:19.325Z,23.12
2018-02-14T05:23:45.706Z,23.15
2018-02-14T05:26:11.892Z,23.08
2018-02-14T05:28:37.991Z,23.14
2018-02-14T05:31:04.091Z,23.20
2018-02-14T06:02:12.680Z,23.42
2018-02-14T06:04:41.252Z,23.39
2018-02-14T06:07:07.245Z,23.38
2018-02-14T06:09:33.379Z,23.48
2018-02-14T06:11:59.437Z,23.48
2018-02-14T06:14:25.538Z,23.43
2018-02-14T06:16:51.590Z,23.53
2018-02-14T06:19:17.633Z,23.42
2018-02-14T06:21:43.725Z,23.49
2018-02-14T06:24:09.800Z,23.42
2018-02-14T06:26:35.890Z,23.48
2018-02-14T06:29:01.984Z,23.56
2018-02-14T06:31:28.005Z,23.67
2018-02-14T06:33:54.051Z,23.61
2018-02-14T06:36:20.131Z,23.14
2018-02-14T06:38:46.209Z,23.45
2018-02-14T06:41:12.242Z,23.30
2018-02-14T06:43:38.319Z,23.11
2018-02-14T06:46:04.537Z,23.26
2018-02-14T06:48:30.764Z,23.09
2018-02-14T06:50:56.799Z,23.20
2018-02-14T06:53:23.015Z,23.29
2018-02-14T06:55:49.018Z,23.31
2018-02-14T06:58:15.142Z,23.35
2018-02-14T07:00:41.408Z,23.35
2018-02-14T07:03:07.428Z,23.39
2018-02-14T07:05:33.493Z,23.31
2018-02-14T07:07:59.617Z,23.49
2018-02-14T07:10:26.110Z,23.49
2018-02-14T07:12:52.249Z,23.26
2018-02-14T07:15:18.307Z,23.25
2018-02-14T07:17:44.316Z,23.58
2018-02-14T07:20:10.386Z,23.66
2018-02-14T07:22:36.447Z,23.51
2018-02-14T07:25:02.541Z,23.54
2018-02-14T07:27:28.636Z,23.61
2018-02-14T07:29:54.664Z,23.49
2018-02-14T07:32:20.705Z,23.47
2018-02-14T07:34:46.933Z,23.88
2018-02-14T07:37:12.964Z,23.81
2018-02-14T07:39:38.974Z,23.91
2018-02-14T07:42:05.083Z,23.73
2018-02-14T07:44:31.148Z,23.88
2018-02-14T07:46:58.269Z,23.53
2018-02-14T07:49:24.344Z,23.77
2018-02-14T07:51:50.511Z,23.53
2018-02-14T07:54:16.578Z,23.81
2018-02-14T07:56:42.619Z,23.72
2018-02-14T07:59:08.655Z,23.77
2018-02-14T08:01:34.736Z,23.83
2018-02-14T08:04:00.793Z,23.81
2018-02-14T08:06:26.813Z,23.70
2018-02-14T08:08:52.936Z,23.87
2018-02-14T08:11:19.192Z,23.77
2018-02-14T08:13:45.294Z,24.06
2018-02-14T08:16:11.412Z,23.98
2018-02-14T08:18:37.479Z,24.06
2018-02-14T08:21:03.590Z,23.84
2018-02-14T08:23:29.637Z,24.10
2018-02-14T08:25:55.860Z,23.98
2018-02-14T08:28:21.982Z,24.10
2018-02-14T08:30:48.073Z,24.04
2018-02-14T08:33:14.162Z,23.95
2018-02-14T08:35:40.270Z,23.75
2018-02-14T08:38:06.332Z,24.15
2018-02-14T08:40:32.438Z,24.17
2018-02-14T08:42:58.477Z,24.31
2018-02-14T08:45:24.506Z,24.37
2018-02-14T08:47:50.555Z,24.55
2018-02-14T08:50:17.005Z,24.20
2018-02-14T08:52:43.428Z,24.50
2018-02-14T08:55:09.323Z,23.95
2018-02-14T08:57:37.648Z,24.05
2018-02-14T09:00:03.880Z,24.18
2018-02-14T09:02:30.783Z,24.43
2018-02-14T09:04:56.974Z,24.15
2018-02-14T09:07:23.161Z,24.53
2018-02-14T09:09:49.510Z,24.27
2018-02-14T09:12:15.644Z,24.51
2018-02-14T09:14:42.014Z,24.48
2018-02-14T09:17:08.047Z,24.55
2018-02-14T09:19:34.173Z,24.37
2018-02-14T09:22:00.243Z,24.46
2018-02-14T09:24:26.280Z,24.27
2018-02-14T09:26:52.296Z,24.64
2018-02-14T09:29:18.335Z,24.37
2018-02-14T09:31:44.419Z,24.60
2018-02-14T09:34:10.458Z,24.58
2018-02-14T09:36:36.520Z,24.74
2018-02-14T09:39:02.591Z,24.69
2018-02-14T10:25:58.778Z,25.17
2018-02-14T10:28:24.805Z,24.70
2018-02-14T10:30:50.818Z,24.64
2018-02-14T10:34:24.304Z,24.67
2018-02-14T10:36:50.625Z,24.60
2018-02-14T14:51:25.453Z,25.66
2018-02-14T14:53:51.529Z,25.89
2018-02-14T14:58:55.109Z,26.26
2018-02-14T15:01:21.153Z,26.61
2018-02-14T15:03:47.408Z,26.73
2018-02-14T15:06:13.459Z,26.76
2018-02-14T15:12:21.416Z,27.41
2018-02-14T15:14:47.510Z,27.78
2018-02-14T15:17:13.570Z,27.77
2018-02-14T15:19:39.951Z,28.21
2018-02-14T15:22:06.037Z,28.59
2018-02-14T15:24:32.281Z,28.46
2018-02-14T15:26:58.384Z,28.54
2018-02-14T15:29:24.449Z,28.07
2018-02-14T15:31:50.526Z,28.60
2018-02-14T15:36:24.992Z,28.35
2018-02-14T15:38:50.951Z,28.22
2018-02-14T15:46:04.934Z,27.84
2018-02-14T15:48:30.937Z,27.76
2018-02-14T15:50:57.002Z,27.84
2018-02-14T15:58:47.912Z,25.24
2018-02-14T16:01:13.933Z,24.73
2018-02-14T16:03:40.022Z,24.52
2018-02-14T16:06:07.034Z,24.44
2018-02-14T16:08:33.050Z,24.48
2018-02-14T16:10:59.093Z,24.55
2018-02-14T16:13:25.190Z,24.42
2018-02-14T16:15:51.200Z,24.70
2018-02-14T16:18:17.220Z,24.09
2018-02-14T16:20:43.228Z,23.66
2018-02-14T16:23:09.378Z,23.40
2018-02-14T16:25:35.320Z,22.96
2018-02-14T16:28:01.331Z,23.20
2018-02-14T16:30:27.447Z,23.93
2018-02-14T16:32:53.441Z,24.00
2018-02-14T16:35:19.464Z,23.95
2018-02-14T16:37:45.460Z,23.89
2018-02-14T16:40:11.610Z,23.91
2018-02-14T16:42:37.769Z,23.89
2018-02-14T16:45:03.990Z,23.85
2018-02-14T16:47:29.995Z,23.90
2018-02-14T16:49:56.010Z,23.95
2018-02-14T16:52:22.064Z,23.82
2018-02-14T16:54:48.059Z,23.90
2018-02-14T16:57:14.072Z,23.86
2018-02-14T16:59:40.086Z,23.91
2018-02-14T17:02:06.083Z,23.88
2018-02-14T17:06:53.564Z,23.94
2018-02-14T17:09:20.185Z,23.89
2018-02-14T17:11:46.891Z,23.86
2018-02-14T17:16:24.649Z,24.01
2018-02-14T17:18:51.387Z,23.93
2018-02-14T17:21:18.086Z,23.94
2018-02-14T17:23:44.733Z,23.79
2018-02-14T17:27:06.435Z,23.99
2018-02-14T17:29:33.404Z,23.96
2018-02-14T17:31:59.995Z,23.88
2018-02-14T17:34:26.537Z,23.93
2018-02-14T17:36:53.101Z,23.72
2018-02-14T17:39:19.665Z,23.92
2018-02-14T17:41:46.298Z,23.80
2018-02-14T17:44:12.882Z,23.89
2018-02-14T17:46:39.478Z,23.89
2018-02-14T17:49:06.065Z,23.84
2018-02-14T17:51:32.611Z,23.77
2018-02-14T17:53:59.184Z,24.02
2018-02-14T17:56:25.750Z,23.91
2018-02-14T17:58:52.329Z,23.87
2018-02-14T18:01:18.867Z,23.67
2018-02-14T18:03:45.438Z,23.81
2018-02-14T18:06:12.010Z,23.89
2018-02-14T18:08:38.711Z,23.88
2018-02-14T18:11:05.264Z,23.77
2018-02-14T18:13:31.833Z,23.76
2018-02-14T18:15:58.426Z,23.73
2018-02-14T18:18:24.990Z,23.72
2018-02-14T18:20:51.607Z,23.72
2018-02-14T18:23:18.167Z,23.70
2018-02-14T18:25:44.749Z,23.70
2018-02-14T18:28:11.328Z,23.74
2018-02-14T18:30:37.891Z,23.69
2018-02-14T18:33:04.470Z,23.66
2018-02-14T18:35:31.045Z,23.65
2018-02-14T18:37:57.620Z,23.67
2018-02-14T18:40:24.212Z,23.59
2018-02-14T18:42:50.802Z,23.62
2018-02-14T18:45:17.366Z,23.58
2018-02-14T18:47:43.995Z,23.62
2018-02-14T18:50:10.595Z,23.57
2018-02-14T18:52:37.155Z,23.56
2018-02-14T18:55:03.783Z,23.57
2018-02-14T18:57:30.357Z,23.57
2018-02-14T18:59:56.974Z,23.64
2018-02-14T19:02:23.643Z,23.58
2018-02-14T19:04:50.213Z,23.54
2018-02-14T19:07:16.837Z,23.54
2018-02-14T19:09:43.443Z,23.42
2018-02-14T19:12:10.026Z,23.55
2018-02-14T19:14:36.653Z,23.51
2018-02-14T19:17:03.282Z,23.33
2018-02-14T19:19:29.877Z,23.38
2018-02-14T19:21:56.533Z,23.51
2018-02-14T19:24:23.139Z,23.50
2018-02-14T19:26:49.738Z,23.42
2018-02-14T19:29:16.358Z,23.44
2018-02-14T19:31:42.958Z,23.35
2018-02-14T19:34:09.594Z,23.34
2018-02-14T19:36:36.204Z,23.44
2018-02-14T19:39:02.853Z,23.45
2018-02-14T19:41:29.475Z,23.49
2018-02-14T19:43:56.082Z,23.65
2018-02-14T19:46:22.694Z,23.45
2018-02-14T19:48:49.279Z,23.41
2018-02-14T19:51:16.000Z,23.41
2018-02-14T19:53:42.586Z,23.36
2018-02-14T19:56:09.177Z,23.38
2018-02-14T19:58:35.840Z,23.33
2018-02-14T20:01:02.489Z,23.37
2018-02-14T20:03:29.082Z,23.35
2018-02-14T20:05:55.699Z,23.37
2018-02-14T20:08:22.268Z,23.35
2018-02-14T20:10:48.909Z,23.32
2018-02-14T20:13:15.572Z,23.32
2018-02-14T20:15:42.198Z,23.33
2018-02-14T20:18:08.860Z,23.34
2018-02-14T20:20:35.537Z,23.30
2018-02-14T20:23:02.153Z,23.31
2018-02-14T20:25:28.752Z,23.27
2018-02-14T20:27:55.346Z,23.31
2018-02-14T20:30:21.945Z,23.26
2018-02-14T20:32:48.543Z,23.24
2018-02-14T20:35:15.194Z,23.24
2018-02-14T20:37:41.774Z,23.26
2018-02-14T20:40:08.425Z,23.13
2018-02-14T20:42:34.996Z,23.22
2018-02-14T20:45:01.626Z,23.20
2018-02-14T20:47:28.189Z,23.24
2018-02-14T20:49:54.898Z,23.22
2018-02-14T20:52:21.467Z,23.16
2018-02-14T20:54:48.085Z,23.17
2018-02-14T20:57:14.695Z,23.20
2018-02-14T20:59:41.539Z,23.27
2018-02-14T21:02:08.150Z,23.26
2018-02-14T21:04:34.722Z,23.23
2018-02-14T21:07:01.332Z,23.15
2018-02-14T21:09:28.014Z,23.21
2018-02-14T21:11:54.653Z,23.17
2018-02-14T21:14:21.221Z,23.21
2018-02-14T21:16:47.827Z,23.15
2018-02-14T21:19:14.442Z,23.17
2018-02-14T21:21:41.129Z,23.17
2018-02-14T21:24:07.748Z,23.12
2018-02-14T21:26:34.371Z,23.14
2018-02-14T21:29:00.998Z,23.11
2018-02-14T21:31:27.639Z,23.11
2018-02-14T21:33:54.238Z,23.10
2018-02-14T21:36:20.800Z,23.15
2018-02-14T21:38:47.379Z,23.10
2018-02-14T21:41:14.068Z,23.07
2018-02-14T21:43:40.707Z,23.05
2018-02-14T21:46:07.321Z,22.96
2018-02-14T21:48:33.934Z,23.08
2018-02-14T21:51:00.569Z,23.09
2018-02-14T21:53:27.166Z,23.05
2018-02-14T21:55:53.733Z,23.00
2018-02-14T21:58:20.633Z,23.02
2018-02-14T22:00:47.215Z,23.05
2018-02-14T22:03:13.780Z,23.00
2018-02-14T22:05:40.404Z,23.00
2018-02-14T22:08:06.978Z,22.95
2018-02-14T22:10:33.536Z,22.85
2018-02-14T22:13:00.104Z,22.79
2018-02-14T22:15:26.666Z,22.79
2018-02-14T22:17:53.306Z,22.73
2018-02-14T22:20:19.912Z,22.91
2018-02-14T22:22:46.497Z,22.85
2018-02-14T22:25:13.067Z,22.92
2018-02-14T22:27:39.679Z,22.92
2018-02-14T22:30:06.692Z,22.89
2018-02-14T22:32:33.297Z,22.86
2018-02-14T22:34:59.859Z,22.79
2018-02-14T22:37:26.432Z,22.85
2018-02-14T22:39:53.094Z,22.86
2018-02-14T22:42:19.661Z,22.76
2018-02-14T22:44:46.235Z,22.87
2018-02-14T22:47:12.803Z,22.66
2018-02-14T22:49:39.427Z,22.71
2018-02-14T22:52:06.018Z,22.52
2018-02-14T22:54:32.622Z,22.38
2018-02-14T22:56:59.191Z,22.24
2018-02-14T22:59:25.875Z,22.30
2018-02-14T23:01:52.494Z,22.37
2018-02-14T23:04:19.104Z,22.39
2018-02-14T23:06:45.733Z,22.56
2018-02-14T23:09:12.301Z,22.48
2018-02-14T23:11:38.933Z,22.57
2018-02-14T23:14:05.451Z,22.56
2018-02-14T23:16:32.015Z,22.59
2018-02-14T23:18:58.594Z,22.61
2018-02-14T23:21:25.206Z,22.58
2018-02-14T23:23:51.782Z,22.57
2018-02-14T23:26:18.423Z,22.58
2018-02-14T23:28:45.004Z,22.64
2018-02-14T23:31:11.596Z,22.59
2018-02-14T23:33:38.185Z,22.65
2018-02-14T23:36:04.802Z,22.48
2018-02-14T23:38:31.387Z,22.66
2018-02-14T23:40:58.072Z,22.62
2018-02-14T23:43:24.670Z,22.59
2018-02-14T23:45:51.253Z,22.59
2018-02-14T23:48:17.841Z,22.63
2018-02-14T23:50:44.528Z,22.67
2018-02-14T23:53:11.092Z,22.70
2018-02-14T23:55:37.652Z,22.66
2018-02-14T23:58:04.251Z,22.70
